Time;durP1;ratioP1;P1;durP2;ratioP2;P2;SDS_P1;SDS_P2;PMS_P1;PMS_P2;Temp;Humidity;BMP_temperature;BMP_pressure;BME280_temperature;BME280_humidity;BME280_pressure;Samples;Min_cycle;Max_cycle;Signal;HPM_P1;HPM_P2
2022/06/24 00:00:16;;;;;;;8.82;4.22;;;23.00;99.90;;;;;;4931141;28;20203;-74
2022/06/24 00:02:48;;;;;;;8.00;3.97;;;22.90;99.90;;;;;;4965117;28;20190;-75
2022/06/24 00:05:16;;;;;;;6.60;4.13;;;22.80;99.90;;;;;;4969534;28;20197;-75
2022/06/24 00:07:51;;;;;;;9.52;4.40;;;22.80;99.90;;;;;;4952609;28;20190;-75
2022/06/24 00:10:31;;;;;;;10.88;4.40;;;22.80;99.90;;;;;;4970809;28;20198;-74
2022/06/24 00:12:58;;;;;;;10.25;4.40;;;22.80;99.90;;;;;;4939046;28;20210;-74
2022/06/24 00:15:33;;;;;;;11.90;4.63;;;22.90;99.90;;;;;;4985498;28;20209;-75
2022/06/24 00:18:16;;;;;;;12.23;4.47;;;22.90;99.90;;;;;;4952236;28;20198;-74
2022/06/24 00:20:50;;;;;;;8.30;4.68;;;22.80;99.90;;;;;;4932859;29;20191;-74
2022/06/24 00:23:21;;;;;;;8.10;4.87;;;22.90;99.90;;;;;;4949622;28;20219;-74
2022/06/24 00:25:49;;;;;;;10.38;4.47;;;22.90;99.90;;;;;;4961657;28;20202;-74
2022/06/24 00:28:17;;;;;;;10.77;4.40;;;22.90;99.90;;;;;;4971854;28;20274;-74
2022/06/24 00:30:52;;;;;;;10.65;4.30;;;22.80;99.90;;;;;;4956084;28;20242;-74
2022/06/24 00:33:24;;;;;;;11.67;4.67;;;22.80;99.90;;;;;;4957644;28;20207;-74
2022/06/24 00:35:58;;;;;;;9.68;4.63;;;22.80;99.90;;;;;;4951079;29;20198;-75
2022/06/24 00:38:34;;;;;;;7.72;4.30;;;22.80;99.90;;;;;;4949691;28;20228;-75
2022/06/24 00:41:08;;;;;;;7.38;4.45;;;22.80;99.90;;;;;;4934195;28;20191;-74
2022/06/24 00:43:38;;;;;;;8.37;3.97;;;22.80;99.90;;;;;;4970169;28;20771;-74
2022/06/24 00:46:18;;;;;;;9.57;4.60;;;22.70;99.90;;;;;;4966087;28;20217;-73
2022/06/24 00:48:57;;;;;;;7.65;4.55;;;22.70;99.90;;;;;;4948594;29;20191;-75
2022/06/24 00:51:33;;;;;;;7.57;4.40;;;22.60;99.90;;;;;;4959926;28;20193;-75
2022/06/24 00:54:14;;;;;;;11.35;5.10;;;22.60;99.90;;;;;;4948723;28;20307;-74
2022/06/24 00:56:43;;;;;;;7.90;4.50;;;22.60;99.90;;;;;;4964591;28;20285;-74
2022/06/24 00:59:10;;;;;;;9.73;4.38;;;22.60;99.90;;;;;;4963916;28;20203;-75
2022/06/24 01:01:41;;;;;;;12.80;4.45;;;22.60;99.90;;;;;;4961189;28;20641;-74
2022/06/24 01:04:10;;;;;;;9.40;4.63;;;22.50;99.90;;;;;;4966228;28;20210;-75
2022/06/24 01:06:41;;;;;;;10.90;4.67;;;22.50;99.90;;;;;;4968628;28;20244;-76
2022/06/24 01:09:09;;;;;;;8.00;4.60;;;22.60;99.90;;;;;;4956658;28;20210;-74
2022/06/24 01:11:44;;;;;;;7.50;5.03;;;22.60;99.90;;;;;;4938016;29;20298;-76
2022/06/24 01:14:12;;;;;;;8.50;5.30;;;22.60;99.90;;;;;;4947630;28;20197;-74
2022/06/24 01:16:39;;;;;;;10.07;4.70;;;22.50;99.90;;;;;;4978520;28;20210;-73
2022/06/24 01:19:14;;;;;;;9.93;4.80;;;22.40;99.90;;;;;;4988726;28;20189;-75
2022/06/24 01:21:45;;;;;;;9.40;4.85;;;22.40;99.90;;;;;;4955286;28;20237;-75
2022/06/24 01:24:19;;;;;;;7.47;5.10;;;22.40;99.90;;;;;;4960421;28;20975;-74
2022/06/24 01:26:48;;;;;;;7.85;4.50;;;22.40;99.90;;;;;;4967419;28;20174;-75
2022/06/24 01:29:16;;;;;;;7.27;4.70;;;22.40;99.90;;;;;;4978639;28;20187;-76
2022/06/24 01:31:48;;;;;;;6.93;4.77;;;22.40;99.90;;;;;;4962299;28;20202;-74
2022/06/24 01:34:16;;;;;;;7.83;4.60;;;22.30;99.90;;;;;;4953946;28;20195;-74
2022/06/24 01:36:43;;;;;;;8.82;4.63;;;22.30;99.90;;;;;;4963579;28;20190;-74
2022/06/24 01:39:10;;;;;;;12.20;4.60;;;22.30;99.90;;;;;;4943668;28;20193;-75
2022/06/24 01:41:39;;;;;;;9.27;4.90;;;22.20;99.90;;;;;;4984381;28;20191;-74
2022/06/24 01:44:07;;;;;;;8.13;4.70;;;22.20;99.90;;;;;;4981667;28;20214;-74
2022/06/24 01:46:33;;;;;;;10.30;4.93;;;22.20;99.90;;;;;;4965325;28;20183;-74
2022/06/24 01:49:00;;;;;;;10.10;4.90;;;22.20;99.90;;;;;;4952329;28;20210;-75
2022/06/24 01:51:28;;;;;;;10.48;5.18;;;22.20;99.90;;;;;;4950252;28;20190;-74
2022/06/24 01:53:54;;;;;;;8.50;5.10;;;22.20;99.90;;;;;;4980072;28;20182;-74
2022/06/24 01:56:21;;;;;;;11.77;4.70;;;22.20;99.90;;;;;;4973513;28;20294;-74
2022/06/24 01:58:47;;;;;;;8.50;4.72;;;22.20;99.90;;;;;;4955103;28;20213;-74
2022/06/24 02:01:14;;;;;;;8.50;4.87;;;22.20;99.90;;;;;;4971383;28;20187;-74
2022/06/24 02:03:43;;;;;;;8.40;4.93;;;22.20;99.90;;;;;;4938672;28;20310;-74
2022/06/24 02:06:12;;;;;;;11.90;5.20;;;22.20;99.90;;;;;;4967520;28;20313;-74
2022/06/24 02:08:40;;;;;;;7.93;4.50;;;22.20;99.90;;;;;;4975362;28;20201;-74
2022/06/24 02:13:57;;;;;;;6.70;4.35;;;22.20;99.90;;;;;;4952834;29;20187;-73
2022/06/24 02:16:25;;;;;;;12.63;5.28;;;22.30;99.90;;;;;;4952270;28;20597;-74
2022/06/24 02:18:54;;;;;;;9.07;4.97;;;22.30;99.90;;;;;;4967547;28;20335;-76
2022/06/24 02:21:24;;;;;;;7.93;4.65;;;22.30;99.90;;;;;;4956307;28;20269;-74
2022/06/24 02:23:51;;;;;;;8.70;5.00;;;22.30;99.90;;;;;;4984152;28;20206;-74
2022/06/24 02:26:18;;;;;;;13.13;5.68;;;22.40;99.90;;;;;;4960313;28;20182;-74
2022/06/24 02:28:45;;;;;;;8.97;5.03;;;22.40;99.90;;;;;;4946801;29;20257;-74
2022/06/24 02:31:12;;;;;;;9.53;5.40;;;22.40;99.90;;;;;;4951108;28;20195;-74
2022/06/24 02:33:39;;;;;;;9.32;4.97;;;22.40;99.90;;;;;;4967265;28;20191;-74
2022/06/24 02:36:06;;;;;;;8.37;4.63;;;22.40;99.90;;;;;;4953642;28;20297;-76
2022/06/24 02:38:34;;;;;;;8.80;4.93;;;22.40;99.90;;;;;;4975418;28;20191;-74
2022/06/24 02:41:01;;;;;;;7.53;4.97;;;22.40;99.90;;;;;;4967747;28;20647;-74
2022/06/24 02:43:32;;;;;;;10.23;5.00;;;22.40;99.90;;;;;;4934113;29;20302;-74
2022/06/24 02:46:07;;;;;;;9.15;5.20;;;22.40;99.90;;;;;;4951527;28;20210;-74
2022/06/24 02:48:36;;;;;;;9.90;5.27;;;22.40;99.90;;;;;;4972171;28;20273;-74
2022/06/24 02:51:09;;;;;;;8.77;4.93;;;22.50;99.90;;;;;;4961508;28;20217;-75
2022/06/24 02:53:36;;;;;;;12.77;5.18;;;22.50;99.90;;;;;;4974050;28;20202;-75
2022/06/24 02:56:12;;;;;;;8.80;5.15;;;22.50;99.90;;;;;;4950405;28;20187;-74
2022/06/24 02:58:40;;;;;;;11.80;5.40;;;22.50;99.90;;;;;;4958382;28;20650;-74
2022/06/24 03:01:08;;;;;;;10.60;4.87;;;22.50;99.90;;;;;;4958544;28;20608;-74
2022/06/24 03:03:35;;;;;;;9.38;4.50;;;22.50;99.90;;;;;;4961272;28;20249;-75
2022/06/24 03:06:01;;;;;;;12.03;4.33;;;22.50;99.90;;;;;;4951225;28;20229;-74
2022/06/24 03:08:28;;;;;;;8.43;4.30;;;22.50;99.90;;;;;;4974990;28;20713;-74
2022/06/24 03:10:56;;;;;;;6.35;4.25;;;22.50;99.90;;;;;;4961159;28;20273;-74
2022/06/24 03:13:23;;;;;;;8.23;4.68;;;22.60;99.90;;;;;;4968053;28;20207;-73
2022/06/24 03:15:51;;;;;;;7.28;4.43;;;22.60;99.90;;;;;;4949877;28;20285;-74
2022/06/24 03:18:18;;;;;;;9.40;4.45;;;22.60;99.90;;;;;;4962643;28;20222;-74
2022/06/24 03:20:46;;;;;;;12.05;4.35;;;22.70;99.90;;;;;;4958776;28;20203;-74
2022/06/24 03:23:13;;;;;;;11.25;4.60;;;22.70;99.90;;;;;;4965131;28;20187;-75
2022/06/24 03:25:40;;;;;;;5.53;3.88;;;22.80;99.90;;;;;;4961284;28;20179;-74
2022/06/24 03:28:07;;;;;;;10.35;4.75;;;22.80;99.90;;;;;;4965898;28;20651;-73
2022/06/24 03:30:34;;;;;;;10.07;4.25;;;22.80;99.90;;;;;;4954619;28;20195;-75
2022/06/24 03:33:00;;;;;;;8.93;5.07;;;22.80;99.90;;;;;;4948365;28;20198;-74
2022/06/24 03:35:27;;;;;;;9.48;5.05;;;22.80;99.90;;;;;;4952234;29;20215;-74
2022/06/24 03:37:54;;;;;;;8.25;4.68;;;22.80;99.90;;;;;;4965865;28;20721;-75
2022/06/24 03:40:20;;;;;;;9.35;4.55;;;22.90;99.90;;;;;;4931635;29;20201;-74
2022/06/24 03:42:46;;;;;;;6.45;4.32;;;22.90;99.90;;;;;;4950444;28;20198;-75
2022/06/24 03:45:13;;;;;;;11.20;5.03;;;23.00;99.90;;;;;;4948614;29;20225;-75
2022/06/24 03:47:39;;;;;;;13.82;5.03;;;23.00;99.90;;;;;;4933628;29;20213;-74
2022/06/24 03:50:06;;;;;;;6.93;3.88;;;23.00;99.90;;;;;;4933658;29;20262;-74
2022/06/24 03:52:32;;;;;;;8.93;4.38;;;23.10;99.90;;;;;;4960480;28;20752;-75
2022/06/24 03:54:59;;;;;;;9.50;5.07;;;23.10;99.90;;;;;;4959365;28;20222;-74
2022/06/24 03:57:25;;;;;;;11.18;4.47;;;23.10;99.90;;;;;;4960034;28;20234;-75
2022/06/24 03:59:51;;;;;;;9.27;4.57;;;23.10;99.90;;;;;;4936375;29;20190;-74
2022/06/24 04:02:18;;;;;;;11.77;4.22;;;23.20;99.90;;;;;;4969095;28;20194;-73
2022/06/24 04:04:45;;;;;;;8.23;4.13;;;23.20;99.90;;;;;;4954914;28;20242;-73
2022/06/24 04:07:11;;;;;;;8.45;4.55;;;23.30;99.90;;;;;;4950210;28;20203;-74
2022/06/24 04:09:38;;;;;;;11.15;4.18;;;23.30;99.90;;;;;;4949479;28;20330;-74
2022/06/24 04:12:04;;;;;;;7.68;4.07;;;23.40;99.90;;;;;;4938228;28;20206;-75
2022/06/24 04:17:16;;;;;;;5.95;3.92;;;23.50;99.90;;;;;;4973515;28;20293;-74
2022/06/24 04:19:42;;;;;;;6.78;4.32;;;23.50;99.90;;;;;;4963107;28;20269;-74
2022/06/24 04:22:08;;;;;;;8.85;3.97;;;23.60;99.90;;;;;;4955298;28;20193;-74
2022/06/24 04:24:34;;;;;;;9.23;4.30;;;23.60;99.90;;;;;;4955716;28;20222;-74
2022/06/24 04:27:01;;;;;;;10.38;4.15;;;23.60;99.90;;;;;;4934003;28;20294;-74
2022/06/24 04:29:27;;;;;;;6.32;3.60;;;23.60;99.90;;;;;;4961818;28;20183;-74
2022/06/24 04:31:54;;;;;;;5.28;3.75;;;23.70;99.90;;;;;;4950816;28;20919;-74
2022/06/24 04:34:20;;;;;;;10.35;4.22;;;23.80;99.90;;;;;;4957744;28;20200;-74
2022/06/24 04:36:46;;;;;;;11.05;4.68;;;23.90;99.90;;;;;;4968324;28;20233;-74
2022/06/24 04:39:13;;;;;;;8.52;3.80;;;24.00;99.90;;;;;;4933116;29;20186;-74
2022/06/24 04:41:39;;;;;;;7.43;4.32;;;24.10;99.90;;;;;;4947655;28;20194;-74
2022/06/24 04:44:05;;;;;;;9.55;4.47;;;24.10;99.90;;;;;;4960132;28;20214;-74
2022/06/24 04:46:31;;;;;;;7.35;4.07;;;24.30;99.90;;;;;;4960461;28;20202;-74
2022/06/24 04:48:57;;;;;;;10.80;4.55;;;24.30;99.90;;;;;;4950152;28;20206;-75
2022/06/24 04:51:28;;;;;;;9.30;4.60;;;24.40;99.90;;;;;;4954416;28;20170;-74
2022/06/24 04:53:54;;;;;;;9.00;4.35;;;24.40;99.90;;;;;;4984076;28;20220;-74
2022/06/24 04:56:21;;;;;;;6.93;4.43;;;24.50;99.90;;;;;;4946202;28;20280;-74
2022/06/24 04:58:49;;;;;;;7.50;4.18;;;24.50;99.90;;;;;;4932540;28;20277;-74
2022/06/24 05:01:16;;;;;;;7.13;4.30;;;24.60;99.90;;;;;;4955221;28;20226;-74
2022/06/24 05:03:43;;;;;;;6.05;4.53;;;24.70;99.90;;;;;;4974737;28;20218;-74
2022/06/24 05:06:09;;;;;;;8.85;4.20;;;24.70;99.90;;;;;;4973254;28;20513;-75
2022/06/24 05:08:37;;;;;;;6.95;4.18;;;24.80;99.90;;;;;;4950234;28;20188;-75
2022/06/24 05:11:05;;;;;;;10.80;4.60;;;24.90;99.90;;;;;;4949614;28;20237;-74
2022/06/24 05:13:31;;;;;;;9.27;4.22;;;24.90;99.90;;;;;;4953853;28;20217;-74
2022/06/24 05:15:58;;;;;;;6.60;3.80;;;25.00;99.90;;;;;;4942425;28;20202;-74
2022/06/24 05:18:24;;;;;;;5.85;3.97;;;25.10;99.90;;;;;;4969701;28;20222;-74
2022/06/24 05:20:50;;;;;;;9.70;4.13;;;25.10;99.90;;;;;;4952742;28;20225;-74
2022/06/24 05:23:17;;;;;;;10.20;4.28;;;25.10;99.90;;;;;;4948554;28;20189;-74
2022/06/24 05:25:43;;;;;;;7.90;4.53;;;25.10;99.90;;;;;;4940093;29;20178;-73
2022/06/24 05:28:10;;;;;;;9.27;3.78;;;25.20;99.90;;;;;;4957922;28;20779;-74
2022/06/24 05:30:36;;;;;;;7.85;4.40;;;25.20;99.90;;;;;;4947820;28;20192;-75
2022/06/24 05:33:05;;;;;;;7.75;4.30;;;25.20;99.90;;;;;;4953740;28;21721;-75
2022/06/24 05:35:31;;;;;;;8.88;4.47;;;25.30;99.90;;;;;;4960564;28;20178;-74
2022/06/24 05:37:58;;;;;;;10.77;4.60;;;25.30;99.90;;;;;;4984448;28;20693;-74
2022/06/24 05:40:24;;;;;;;6.53;4.47;;;25.40;99.90;;;;;;4967991;28;20186;-75
2022/06/24 05:42:50;;;;;;;7.00;4.00;;;25.40;99.90;;;;;;4953007;28;20570;-74
2022/06/24 05:45:17;;;;;;;9.93;4.55;;;25.50;99.90;;;;;;4960785;28;20214;-74
2022/06/24 05:47:43;;;;;;;10.57;4.32;;;25.60;99.90;;;;;;4944687;29;20179;-75
2022/06/24 05:50:10;;;;;;;7.80;4.68;;;25.70;99.90;;;;;;4952565;28;20261;-74
2022/06/24 05:55:23;;;;;;;12.68;4.03;;;25.70;99.90;;;;;;4949904;28;20532;-75
2022/06/24 05:57:50;;;;;;;9.88;4.20;;;25.70;99.90;;;;;;4945365;28;20236;-74
2022/06/24 06:00:16;;;;;;;7.07;3.97;;;25.80;99.90;;;;;;4964701;28;20194;-74
2022/06/24 06:02:43;;;;;;;8.98;3.92;;;25.90;99.90;;;;;;4961201;28;20183;-74
2022/06/24 06:05:09;;;;;;;9.43;4.35;;;26.00;99.90;;;;;;4952401;28;20253;-74
2022/06/24 06:07:36;;;;;;;7.95;3.92;;;26.00;99.90;;;;;;4972119;28;20234;-74
2022/06/24 06:10:03;;;;;;;14.73;4.15;;;26.00;99.90;;;;;;4964426;28;20186;-74
2022/06/24 06:12:29;;;;;;;8.00;3.80;;;26.10;99.90;;;;;;4956323;28;21355;-74
2022/06/24 06:14:55;;;;;;;5.40;3.55;;;26.10;99.90;;;;;;4977099;28;20224;-74
2022/06/24 06:17:21;;;;;;;11.10;4.03;;;26.20;99.90;;;;;;4948691;28;20338;-75
2022/06/24 06:19:48;;;;;;;8.98;4.82;;;26.20;99.90;;;;;;4953926;28;20911;-73
2022/06/24 06:22:14;;;;;;;7.88;3.95;;;26.30;99.90;;;;;;4979806;28;20695;-75
2022/06/24 06:24:40;;;;;;;7.82;4.38;;;26.40;99.90;;;;;;4960814;28;20244;-74
2022/06/24 06:27:08;;;;;;;6.72;4.07;;;26.50;99.90;;;;;;4956101;28;20183;-74
2022/06/24 06:29:34;;;;;;;8.05;4.43;;;26.60;99.90;;;;;;4964241;28;20678;-74
2022/06/24 06:32:01;;;;;;;8.40;4.35;;;26.70;99.90;;;;;;4941614;29;20213;-75
2022/06/24 06:34:31;;;;;;;8.80;4.22;;;26.90;99.90;;;;;;4956930;28;20178;-75
2022/06/24 06:36:58;;;;;;;9.43;4.90;;;27.00;99.90;;;;;;4969570;28;20183;-75
2022/06/24 06:39:24;;;;;;;9.52;5.68;;;27.20;99.90;;;;;;4972917;28;20191;-75
2022/06/24 06:41:51;;;;;;;9.95;5.47;;;27.30;99.90;;;;;;4951859;28;20722;-74
2022/06/24 06:44:20;;;;;;;10.75;5.18;;;27.40;99.90;;;;;;4953954;28;20280;-75
2022/06/24 06:46:46;;;;;;;12.05;5.13;;;27.50;99.90;;;;;;4978533;28;20677;-75
2022/06/24 06:49:13;;;;;;;10.18;5.22;;;27.50;99.90;;;;;;4960819;28;20210;-74
2022/06/24 06:51:39;;;;;;;9.95;5.05;;;27.60;99.90;;;;;;4966446;28;20191;-75
2022/06/24 06:54:06;;;;;;;9.30;4.82;;;27.60;99.90;;;;;;4974981;28;20213;-75
2022/06/24 06:56:32;;;;;;;12.60;5.03;;;27.60;99.90;;;;;;4965774;28;20201;-75
2022/06/24 06:59:01;;;;;;;14.68;4.32;;;27.60;99.90;;;;;;4975537;28;20203;-74
2022/06/24 07:01:27;;;;;;;11.00;4.60;;;27.70;99.80;;;;;;4948691;28;20206;-74
2022/06/24 07:03:54;;;;;;;10.82;4.65;;;27.80;99.90;;;;;;4950706;28;20238;-75
2022/06/24 07:06:22;;;;;;;13.00;5.03;;;27.80;99.90;;;;;;4957485;28;20302;-74
2022/06/24 07:08:48;;;;;;;9.15;4.57;;;27.90;99.90;;;;;;4959810;28;20194;-74
2022/06/24 07:11:15;;;;;;;8.25;4.30;;;28.00;99.50;;;;;;4955465;28;20282;-74
2022/06/24 07:13:41;;;;;;;9.32;4.55;;;28.00;99.50;;;;;;4950893;29;20191;-74
2022/06/24 07:16:11;;;;;;;8.35;4.15;;;28.10;98.90;;;;;;4964887;28;20313;-75
2022/06/24 07:18:37;;;;;;;7.80;4.25;;;28.20;99.00;;;;;;4949578;28;20219;-74
2022/06/24 07:21:04;;;;;;;9.30;4.20;;;28.40;98.60;;;;;;4943138;28;20667;-75
2022/06/24 07:23:30;;;;;;;10.25;4.28;;;28.50;97.90;;;;;;4947856;28;20250;-74
2022/06/24 07:25:58;;;;;;;11.82;4.85;;;28.50;98.40;;;;;;4916703;28;21627;-74
2022/06/24 07:28:25;;;;;;;10.48;4.47;;;28.70;99.00;;;;;;4945107;28;20225;-75
2022/06/24 07:30:54;;;;;;;10.82;4.95;;;28.80;98.80;;;;;;4951201;28;20182;-74
2022/06/24 07:33:23;;;;;;;12.00;4.70;;;28.90;98.60;;;;;;4962328;28;20207;-76
2022/06/24 07:35:50;;;;;;;13.45;5.13;;;29.00;99.00;;;;;;4933867;29;20229;-75
2022/06/24 07:38:17;;;;;;;9.93;4.65;;;29.10;99.10;;;;;;4948550;28;20194;-76
2022/06/24 07:40:43;;;;;;;8.60;4.13;;;29.10;99.20;;;;;;4954801;28;20194;-75
2022/06/24 07:43:10;;;;;;;10.18;4.22;;;29.10;97.80;;;;;;4947521;28;20216;-77
2022/06/24 07:45:39;;;;;;;6.80;3.97;;;29.20;97.00;;;;;;4948546;28;20205;-75
2022/06/24 07:48:05;;;;;;;11.20;4.00;;;29.30;97.40;;;;;;4946597;28;20188;-75
2022/06/24 07:50:32;;;;;;;13.65;4.53;;;29.40;96.40;;;;;;4963585;28;20187;-76
2022/06/24 07:52:58;;;;;;;9.23;4.22;;;29.40;96.20;;;;;;4964683;28;20206;-75
2022/06/24 07:58:10;;;;;;;13.23;4.65;;;29.70;97.80;;;;;;4948835;29;20879;-78
2022/06/24 08:00:38;;;;;;;11.52;4.55;;;29.80;97.80;;;;;;4961324;28;20183;-74
2022/06/24 08:03:05;;;;;;;9.40;4.60;;;30.00;97.60;;;;;;4965618;28;20640;-75
2022/06/24 08:05:32;;;;;;;9.85;4.53;;;30.10;98.50;;;;;;4965647;28;20223;-75
2022/06/24 08:07:59;;;;;;;15.45;4.90;;;30.20;97.80;;;;;;4950423;28;21020;-75
2022/06/24 08:10:26;;;;;;;8.48;3.92;;;30.30;97.60;;;;;;4942564;28;20285;-76
2022/06/24 08:12:53;;;;;;;11.13;4.80;;;30.40;96.90;;;;;;4953649;28;23080;-75
2022/06/24 08:15:19;;;;;;;12.27;4.65;;;30.50;97.30;;;;;;4942091;28;20575;-76
2022/06/24 08:17:46;;;;;;;12.63;4.40;;;30.50;97.10;;;;;;4948785;29;20187;-74
2022/06/24 08:20:12;;;;;;;12.48;4.55;;;30.60;97.20;;;;;;4946085;28;20183;-75
2022/06/24 08:22:41;;;;;;;14.75;5.30;;;30.70;96.90;;;;;;4950067;28;20277;-75
2022/06/24 08:25:09;;;;;;;9.27;4.45;;;30.90;97.50;;;;;;4950659;28;20218;-74
2022/06/24 08:27:35;;;;;;;9.70;4.25;;;30.90;97.60;;;;;;4950772;28;20663;-74
2022/06/24 08:30:03;;;;;;;9.88;4.00;;;31.00;96.80;;;;;;4950536;29;20195;-75
2022/06/24 08:32:30;;;;;;;10.20;4.47;;;31.10;97.60;;;;;;4965364;28;20593;-75
2022/06/24 08:34:56;;;;;;;8.25;4.35;;;31.20;97.60;;;;;;4967218;28;20190;-74
2022/06/24 08:37:23;;;;;;;11.73;4.32;;;31.30;99.10;;;;;;4928383;28;20222;-77
2022/06/24 08:39:49;;;;;;;8.52;4.00;;;31.40;97.90;;;;;;4949043;28;20218;-76
2022/06/24 08:42:17;;;;;;;15.70;4.40;;;31.50;97.30;;;;;;4933007;29;20198;-75
2022/06/24 08:44:44;;;;;;;11.63;4.53;;;31.60;98.20;;;;;;4961473;28;20215;-75
2022/06/24 08:47:15;;;;;;;9.30;4.28;;;31.70;98.10;;;;;;4926154;29;20206;-74
2022/06/24 08:49:42;;;;;;;6.70;4.20;;;31.70;98.10;;;;;;4955108;28;20230;-75
2022/06/24 08:52:11;;;;;;;10.10;4.38;;;31.70;97.30;;;;;;4959641;28;20202;-75
2022/06/24 08:54:43;;;;;;;11.20;4.45;;;31.80;98.20;;;;;;4960030;28;20191;-75
2022/06/24 08:57:12;;;;;;;11.48;4.13;;;31.80;99.50;;;;;;4916625;29;20210;-75
2022/06/24 08:59:39;;;;;;;10.68;4.40;;;31.90;99.10;;;;;;4949918;28;20679;-74
2022/06/24 09:02:07;;;;;;;9.48;4.55;;;31.90;99.90;;;;;;4946586;28;20285;-74
2022/06/24 09:04:34;;;;;;;17.13;4.63;;;32.00;99.90;;;;;;4927404;29;20218;-73
2022/06/24 09:07:01;;;;;;;12.52;4.88;;;31.90;99.90;;;;;;4950711;28;20252;-75
2022/06/24 09:09:28;;;;;;;14.52;4.93;;;32.00;99.90;;;;;;4964947;28;20191;-74
2022/06/24 09:11:57;;;;;;;17.25;5.38;;;31.90;99.90;;;;;;4933294;29;20232;-74
2022/06/24 09:14:45;;;;;;;9.20;5.00;;;31.90;99.90;;;;;;4962096;28;20179;-75
2022/06/24 09:17:12;;;;;;;9.43;4.90;;;31.90;99.90;;;;;;4933249;28;20864;-75
2022/06/24 09:19:39;;;;;;;12.75;5.30;;;32.00;99.90;;;;;;4942217;28;20232;-76
2022/06/24 09:22:06;;;;;;;12.18;5.60;;;32.10;99.90;;;;;;4958986;28;20190;-75
2022/06/24 09:24:47;;;;;;;13.05;5.07;;;32.10;99.90;;;;;;4951703;29;20306;-74
2022/06/24 09:27:14;;;;;;;13.48;5.20;;;32.10;99.90;;;;;;4939152;29;20598;-75
2022/06/24 09:29:50;;;;;;;12.18;4.40;;;32.20;99.90;;;;;;4968669;28;20216;-75
2022/06/24 09:32:17;;;;;;;12.05;4.78;;;32.20;99.90;;;;;;4968674;28;20557;-74
2022/06/24 09:35:08;;;;;;;14.90;4.63;;;32.20;99.90;;;;;;4937820;29;20529;-75
2022/06/24 09:37:47;;;;;;;12.45;4.45;;;32.30;99.90;;;;;;4932223;29;20242;-75
2022/06/24 09:40:25;;;;;;;6.90;3.40;;;32.50;99.90;;;;;;4951262;29;20675;-74
2022/06/24 09:43:09;;;;;;;9.63;4.13;;;32.60;97.00;;;;;;4952002;29;20198;-74
2022/06/24 09:45:51;;;;;;;8.60;4.00;;;32.70;95.90;;;;;;4957174;28;20238;-75
2022/06/24 09:48:27;;;;;;;11.80;4.22;;;32.90;98.00;;;;;;4953598;28;20182;-74
2022/06/24 09:50:59;;;;;;;9.80;4.43;;;33.10;97.20;;;;;;4969735;28;20177;-74
2022/06/24 09:53:27;;;;;;;9.65;3.83;;;33.30;96.30;;;;;;4956094;28;20262;-75
2022/06/24 09:55:57;;;;;;;7.65;3.55;;;33.40;95.10;;;;;;4950503;29;20599;-74
2022/06/24 09:58:23;;;;;;;8.00;4.13;;;33.50;94.30;;;;;;4935912;29;20190;-75
2022/06/24 10:00:51;;;;;;;9.98;3.78;;;33.40;94.00;;;;;;4951597;29;20238;-74
2022/06/24 10:03:19;;;;;;;11.20;4.20;;;33.40;93.90;;;;;;4954986;28;20179;-74
2022/06/24 10:05:51;;;;;;;11.90;3.88;;;33.50;94.20;;;;;;4979199;28;20197;-75
2022/06/24 10:08:24;;;;;;;13.88;4.53;;;33.70;94.50;;;;;;4987818;28;20524;-74
2022/06/24 10:10:56;;;;;;;14.57;4.43;;;33.70;95.80;;;;;;4968238;28;20187;-73
2022/06/24 10:13:35;;;;;;;8.10;4.35;;;33.80;95.70;;;;;;4959354;28;20211;-75
2022/06/24 10:16:06;;;;;;;8.82;4.32;;;33.80;96.00;;;;;;4948177;28;20206;-74
2022/06/24 10:18:46;;;;;;;10.68;4.60;;;33.80;96.50;;;;;;4953860;28;20186;-74
2022/06/24 10:21:18;;;;;;;13.55;4.93;;;34.00;95.20;;;;;;4953258;28;20192;-75
2022/06/24 10:23:48;;;;;;;13.15;4.80;;;33.90;95.50;;;;;;4965839;28;20215;-76
2022/06/24 10:26:32;;;;;;;14.40;4.40;;;34.00;95.30;;;;;;4952901;28;20205;-75
2022/06/24 10:29:04;;;;;;;10.20;5.15;;;34.00;95.80;;;;;;4974125;28;20211;-76
2022/06/24 10:31:48;;;;;;;11.75;4.10;;;34.00;96.20;;;;;;4938359;29;20183;-76
2022/06/24 10:34:20;;;;;;;14.40;4.70;;;34.00;95.80;;;;;;4955644;28;20187;-74
2022/06/24 10:36:51;;;;;;;12.30;4.47;;;33.90;95.20;;;;;;4949339;28;20194;-76
2022/06/24 10:39:21;;;;;;;13.20;4.93;;;33.90;95.60;;;;;;4966025;28;20503;-76
2022/06/24 10:42:02;;;;;;;12.82;4.70;;;34.00;96.00;;;;;;4951561;28;20187;-76
2022/06/24 10:44:35;;;;;;;9.88;4.60;;;34.00;96.50;;;;;;4945028;28;20234;-76
2022/06/24 10:47:05;;;;;;;8.98;4.60;;;34.00;96.70;;;;;;4948922;28;20198;-76
2022/06/24 10:50:00;;;;;;;16.52;5.18;;;34.00;97.30;;;;;;4950875;28;20675;-76
2022/06/24 10:52:55;;;;;;;13.73;4.72;;;34.00;97.10;;;;;;4976954;28;20212;-76
2022/06/24 10:55:28;;;;;;;10.30;4.70;;;34.00;98.20;;;;;;4947665;29;20542;-76
2022/06/24 10:58:06;;;;;;;9.23;4.93;;;34.00;97.40;;;;;;4960191;28;20190;-76
2022/06/24 11:00:48;;;;;;;11.30;5.70;;;34.00;98.50;;;;;;4951997;28;20579;-76
2022/06/24 11:03:30;;;;;;;10.30;4.60;;;34.00;99.60;;;;;;4951107;28;20193;-76
2022/06/24 11:05:59;;;;;;;14.68;4.75;;;34.00;96.20;;;;;;4950013;29;20195;-76
2022/06/24 11:08:27;;;;;;;15.35;5.00;;;33.80;94.60;;;;;;4949999;28;20190;-76
2022/06/24 11:10:54;;;;;;;12.38;4.55;;;33.80;98.60;;;;;;4952503;28;20325;-76
2022/06/24 11:13:23;;;;;;;12.73;4.97;;;33.90;98.20;;;;;;4951732;28;20746;-76
2022/06/24 11:15:58;;;;;;;11.18;4.65;;;33.90;97.90;;;;;;4967921;28;20711;-77
2022/06/24 11:18:29;;;;;;;11.43;4.57;;;33.80;95.10;;;;;;4953134;28;20171;-76
2022/06/24 11:21:06;;;;;;;15.73;4.70;;;33.80;95.20;;;;;;4936354;28;20186;-77
2022/06/24 11:23:37;;;;;;;13.43;4.82;;;33.80;95.80;;;;;;4972220;28;20556;-77
2022/06/24 11:26:24;;;;;;;13.07;5.28;;;33.70;96.60;;;;;;4956033;28;20182;-77
2022/06/24 11:28:55;;;;;;;8.98;4.65;;;33.70;98.60;;;;;;4935559;29;20264;-76
2022/06/24 11:31:25;;;;;;;17.50;5.05;;;33.70;97.00;;;;;;4936044;29;20175;-77
2022/06/24 11:34:12;;;;;;;20.65;4.85;;;33.70;97.70;;;;;;4952676;29;20183;-76
2022/06/24 11:36:41;;;;;;;14.63;4.78;;;33.60;95.70;;;;;;4958508;28;20193;-77
2022/06/24 11:39:09;;;;;;;15.52;4.82;;;33.70;95.80;;;;;;4952113;28;20198;-77
2022/06/24 11:41:47;;;;;;;12.77;5.07;;;33.60;96.50;;;;;;4951091;28;20206;-77
2022/06/24 11:44:14;;;;;;;10.30;5.00;;;33.70;97.60;;;;;;4934303;29;20211;-76
2022/06/24 11:46:49;;;;;;;9.38;4.68;;;33.70;97.40;;;;;;4967660;28;20233;-76
2022/06/24 11:49:17;;;;;;;14.73;4.85;;;33.70;97.10;;;;;;4966916;28;20281;-77
2022/06/24 11:51:46;;;;;;;10.75;4.78;;;33.50;94.90;;;;;;4958802;28;20193;-77
2022/06/24 11:54:13;;;;;;;14.55;4.97;;;33.50;93.40;;;;;;4947968;29;20191;-76
2022/06/24 11:56:42;;;;;;;14.10;4.32;;;33.50;91.00;;;;;;4936899;28;20198;-76
2022/06/24 11:59:11;;;;;;;10.98;4.55;;;33.40;89.80;;;;;;4967275;28;20183;-76
2022/06/24 12:01:41;;;;;;;15.50;4.82;;;33.30;90.60;;;;;;4962872;28;20195;-76
2022/06/24 12:04:12;;;;;;;12.55;4.72;;;33.30;89.50;;;;;;4956648;28;20215;-77
2022/06/24 12:06:40;;;;;;;15.30;4.38;;;33.20;90.10;;;;;;4935089;29;20528;-76
2022/06/24 12:09:07;;;;;;;10.90;4.15;;;33.30;87.60;;;;;;4951101;28;20182;-76
2022/06/24 12:11:43;;;;;;;18.10;4.45;;;33.20;89.30;;;;;;4950437;29;20737;-76
2022/06/24 12:14:14;;;;;;;9.57;4.30;;;33.20;89.40;;;;;;4951861;28;20270;-77
2022/06/24 12:17:11;;;;;;;15.10;4.85;;;33.10;89.50;;;;;;4967325;28;20329;-77
2022/06/24 12:20:00;;;;;;;14.23;4.20;;;33.20;86.40;;;;;;4956696;28;20277;-77
2022/06/24 12:22:26;;;;;;;15.40;4.78;;;33.10;88.90;;;;;;4951081;28;20237;-77
2022/06/24 12:25:11;;;;;;;9.35;4.30;;;33.10;86.50;;;;;;4967037;28;20231;-76
2022/06/24 12:27:40;;;;;;;15.38;4.75;;;33.30;87.50;;;;;;4981642;28;20186;-77
2022/06/24 12:30:20;;;;;;;17.33;4.93;;;33.20;89.50;;;;;;4969907;28;20186;-76
2022/06/24 12:32:59;;;;;;;7.90;4.78;;;33.20;89.50;;;;;;4969887;28;20178;-77
2022/06/24 12:35:35;;;;;;;11.38;5.22;;;33.20;89.10;;;;;;4986933;28;20181;-76
2022/06/24 12:38:04;;;;;;;9.35;4.82;;;33.10;90.50;;;;;;4970358;28;20178;-76
2022/06/24 12:40:31;;;;;;;10.77;4.55;;;33.10;91.10;;;;;;4970157;28;20253;-76
2022/06/24 12:43:12;;;;;;;9.82;5.07;;;33.10;90.70;;;;;;4962993;28;20277;-76
2022/06/24 12:45:43;;;;;;;20.70;5.20;;;33.00;91.70;;;;;;4930629;28;20233;-76
2022/06/24 12:51:04;;;;;;;16.20;5.45;;;33.00;91.10;;;;;;4986119;28;20178;-78
2022/06/24 12:53:32;;;;;;;10.02;4.95;;;32.80;91.40;;;;;;4969382;28;20178;-76
2022/06/24 12:56:02;;;;;;;12.70;4.63;;;32.80;90.50;;;;;;4969626;28;20226;-76
2022/06/24 12:58:29;;;;;;;15.07;4.78;;;32.60;91.10;;;;;;4950482;28;20282;-76
2022/06/24 13:00:55;;;;;;;8.93;5.00;;;32.60;91.50;;;;;;4958714;28;20182;-76
2022/06/24 13:03:23;;;;;;;11.43;5.03;;;32.50;91.70;;;;;;4950224;28;20175;-77
2022/06/24 13:05:49;;;;;;;15.38;5.55;;;32.50;92.30;;;;;;4966532;28;20860;-76
2022/06/24 13:08:16;;;;;;;9.60;5.32;;;32.50;92.30;;;;;;4966898;28;20189;-76